createdAt,value
2023-09-07T00:09:23.390Z,15.90
2023-09-07T00:13:27.475Z,15.70
2023-09-07T00:17:35.921Z,15.60
2023-09-07T00:21:43.290Z,15.60
2023-09-07T00:25:48.804Z,15.60
2023-09-07T00:29:52.819Z,15.60
2023-09-07T00:33:56.873Z,15.60
2023-09-07T00:38:20.031Z,15.70
2023-09-07T00:42:25.427Z,15.40
2023-09-07T00:46:30.716Z,15.40
2023-09-07T00:50:35.106Z,15.40
2023-09-07T00:54:42.278Z,15.40
2023-09-07T01:05:43.715Z,15.20
2023-09-07T01:09:55.479Z,15.10
2023-09-07T01:14:01.160Z,15.10
2023-09-07T01:18:27.811Z,15.00
2023-09-07T01:27:02.122Z,14.80
2023-09-07T01:31:12.066Z,14.70
2023-09-07T01:35:19.889Z,14.60
2023-09-07T01:39:25.580Z,14.60
2023-09-07T01:43:29.513Z,14.50
2023-09-07T01:47:38.083Z,14.40
2023-09-07T01:51:43.937Z,14.30
2023-09-07T01:55:49.425Z,14.20
2023-09-07T01:59:54.406Z,14.10
2023-09-07T02:04:00.875Z,13.90
2023-09-07T02:08:09.231Z,13.80
2023-09-07T02:12:16.350Z,13.80
2023-09-07T02:16:24.234Z,13.70
2023-09-07T02:20:28.415Z,13.60
2023-09-07T02:24:32.719Z,13.40
2023-09-07T02:28:38.384Z,13.30
2023-09-07T02:32:45.143Z,13.20
2023-09-07T02:36:49.374Z,13.10
2023-09-07T02:40:53.359Z,13.10
2023-09-07T02:44:59.243Z,13.10
2023-09-07T02:49:31.583Z,13.00
2023-09-07T02:53:36.799Z,12.90
2023-09-07T02:58:32.753Z,12.90
2023-09-07T03:02:38.518Z,12.90
2023-09-07T03:06:45.765Z,12.90
2023-09-07T03:10:51.907Z,12.80
2023-09-07T03:16:02.067Z,12.80
2023-09-07T03:20:16.591Z,12.70
2023-09-07T03:24:28.379Z,12.70
2023-09-07T03:28:36.193Z,12.60
2023-09-07T03:32:41.199Z,12.60
2023-09-07T03:36:46.920Z,12.50
2023-09-07T03:40:50.985Z,12.50
2023-09-07T03:44:59.597Z,12.50
2023-09-07T03:49:04.404Z,12.40
2023-09-07T03:53:10.256Z,12.40
2023-09-07T03:58:04.874Z,12.40
2023-09-07T04:02:09.011Z,12.40
2023-09-07T04:06:30.689Z,12.40
2023-09-07T04:10:36.184Z,12.40
2023-09-07T04:14:58.779Z,12.30
2023-09-07T04:19:03.182Z,12.30
2023-09-07T04:23:29.550Z,12.30
2023-09-07T04:27:38.117Z,12.50
2023-09-07T04:31:54.111Z,12.80
2023-09-07T04:36:11.579Z,13.00
2023-09-07T04:40:18.005Z,13.70
2023-09-07T04:44:51.230Z,14.80
2023-09-07T04:48:57.046Z,15.80
2023-09-07T04:53:02.314Z,16.80
2023-09-07T04:57:32.720Z,18.00
2023-09-07T05:01:38.328Z,19.00
2023-09-07T05:06:11.604Z,20.00
2023-09-07T05:10:15.818Z,20.80
2023-09-07T05:15:14.240Z,21.70
2023-09-07T05:19:21.546Z,22.60
2023-09-07T05:23:34.146Z,21.80
2023-09-07T05:27:38.745Z,19.90
2023-09-07T05:31:43.333Z,18.70
2023-09-07T05:35:48.946Z,17.70
2023-09-07T05:39:58.124Z,17.10
2023-09-07T05:44:02.346Z,16.40
2023-09-07T05:48:20.831Z,16.00
2023-09-07T05:52:33.556Z,15.80
2023-09-07T05:56:37.986Z,15.60
2023-09-07T06:00:49.498Z,15.40
2023-09-07T06:04:53.646Z,15.60
2023-09-07T06:09:00.542Z,15.80
2023-09-07T06:14:07.459Z,15.90
2023-09-07T06:18:11.863Z,16.00
2023-09-07T06:22:17.398Z,16.20
2023-09-07T06:26:23.394Z,16.40
2023-09-07T06:30:30.974Z,16.60
2023-09-07T06:34:36.231Z,16.70
2023-09-07T06:38:41.376Z,16.90
2023-09-07T06:42:48.057Z,17.00
2023-09-07T06:47:04.792Z,17.20
2023-09-07T06:51:11.009Z,17.30
2023-09-07T06:55:43.637Z,17.60
2023-09-07T06:59:49.907Z,17.70
2023-09-07T07:04:19.722Z,17.90
2023-09-07T07:08:24.227Z,18.00
2023-09-07T07:13:27.455Z,18.10
2023-09-07T07:17:33.280Z,18.30
2023-09-07T07:21:44.798Z,18.50
2023-09-07T07:25:51.261Z,18.60
2023-09-07T07:31:03.156Z,18.90
2023-09-07T07:35:09.205Z,18.80
2023-09-07T07:39:17.350Z,19.00
2023-09-07T07:43:21.436Z,19.20
2023-09-07T07:48:16.940Z,19.50
2023-09-07T07:52:24.946Z,19.60
2023-09-07T07:56:32.587Z,19.70
2023-09-07T08:00:42.723Z,19.80
2023-09-07T08:04:46.829Z,20.00
2023-09-07T08:08:54.512Z,20.10
2023-09-07T08:12:59.629Z,20.00
2023-09-07T08:18:10.438Z,20.10
2023-09-07T08:22:17.893Z,20.30
2023-09-07T08:26:25.037Z,20.40
2023-09-07T08:30:32.071Z,20.50
2023-09-07T08:34:41.087Z,20.70
2023-09-07T08:38:44.732Z,20.80
2023-09-07T08:43:44.077Z,20.90
2023-09-07T08:47:49.938Z,21.00
2023-09-07T08:56:23.615Z,21.30
2023-09-07T09:00:54.127Z,21.40
2023-09-07T09:05:00.686Z,21.50
2023-09-07T09:09:08.029Z,21.70
2023-09-07T09:13:12.574Z,21.70
2023-09-07T09:17:20.808Z,21.80
2023-09-07T09:21:27.544Z,21.90
2023-09-07T09:26:01.483Z,21.70
2023-09-07T09:30:08.177Z,21.90
2023-09-07T09:34:21.519Z,22.00
2023-09-07T09:38:27.357Z,22.10
2023-09-07T09:43:09.014Z,22.20
2023-09-07T09:47:14.432Z,22.20
2023-09-07T09:51:18.328Z,22.40
2023-09-07T09:56:36.474Z,22.50
2023-09-07T10:00:54.196Z,22.60
2023-09-07T10:04:57.911Z,22.60
2023-09-07T10:09:18.676Z,22.70
2023-09-07T10:13:36.405Z,22.90
2023-09-07T10:17:54.441Z,22.70
2023-09-07T10:21:59.776Z,22.90
2023-09-07T10:26:13.047Z,23.20
2023-09-07T10:30:20.606Z,22.90
2023-09-07T10:34:39.223Z,22.90
2023-09-07T10:38:43.696Z,23.00
2023-09-07T10:43:03.903Z,23.10
2023-09-07T10:47:09.714Z,23.30
2023-09-07T10:51:26.048Z,23.30
2023-09-07T10:55:30.170Z,23.20
2023-09-07T10:59:49.702Z,23.40
2023-09-07T11:03:53.657Z,23.30
2023-09-07T11:08:19.055Z,23.10
2023-09-07T11:12:23.639Z,23.00
2023-09-07T11:16:51.828Z,22.90
2023-09-07T11:37:34.083Z,23.60
2023-09-07T11:41:37.584Z,23.50
2023-09-07T11:45:48.522Z,23.60
2023-09-07T11:49:54.305Z,23.60
2023-09-07T12:10:04.722Z,23.80
2023-09-07T12:14:08.605Z,23.70
2023-09-07T12:18:15.412Z,23.80
2023-09-07T12:23:08.946Z,23.70
2023-09-07T12:27:52.579Z,23.50
2023-09-07T12:32:26.024Z,23.60
2023-09-07T12:36:31.416Z,23.70
2023-09-07T12:56:22.471Z,24.00
2023-09-07T13:00:53.551Z,23.80
2023-09-07T13:05:47.057Z,23.90
2023-09-07T13:15:40.583Z,23.90
2023-09-07T13:20:19.425Z,24.00
2023-09-07T13:24:25.345Z,23.80
2023-09-07T13:29:44.060Z,23.90
2023-09-07T13:34:14.823Z,23.90
2023-09-07T13:39:07.778Z,23.80
2023-09-07T13:43:41.587Z,23.90
2023-09-07T13:48:11.716Z,24.00
2023-09-07T14:05:20.235Z,24.20
2023-09-07T14:09:34.938Z,24.30
2023-09-07T14:13:40.977Z,24.30
2023-09-07T14:17:46.318Z,24.30
2023-09-07T14:22:43.443Z,24.50
2023-09-07T14:39:14.857Z,24.10
2023-09-07T14:44:34.688Z,24.10
2023-09-07T14:49:05.235Z,24.10
2023-09-07T15:04:38.479Z,23.80
2023-09-07T15:08:46.082Z,23.60
2023-09-07T15:18:37.524Z,24.00
2023-09-07T15:22:43.988Z,23.80
2023-09-07T16:17:59.435Z,22.60
2023-09-07T16:28:13.042Z,22.10
2023-09-07T16:32:21.379Z,21.90
2023-09-07T16:36:25.442Z,21.80
2023-09-07T16:40:31.930Z,21.60
2023-09-07T16:44:37.953Z,21.40
2023-09-07T16:48:42.410Z,21.30
2023-09-07T16:52:51.511Z,21.30
2023-09-07T16:56:59.799Z,21.10
2023-09-07T17:01:14.593Z,21.00
2023-09-07T17:05:49.812Z,20.90
2023-09-07T17:15:53.657Z,20.50
2023-09-07T17:20:10.087Z,20.40
2023-09-07T17:24:16.320Z,20.20
2023-09-07T17:28:20.775Z,20.20
2023-09-07T17:32:26.089Z,20.00
2023-09-07T17:36:40.797Z,19.90
2023-09-07T17:40:44.877Z,20.00
2023-09-07T17:45:16.018Z,19.90
2023-09-07T17:49:22.335Z,19.80
2023-09-07T17:54:07.980Z,19.70
2023-09-07T17:58:14.562Z,19.70
2023-09-07T18:02:43.517Z,19.50
2023-09-07T18:06:48.764Z,19.50
2023-09-07T18:10:52.939Z,19.50
2023-09-07T18:14:58.336Z,19.30
2023-09-07T18:19:13.216Z,19.20
2023-09-07T18:23:19.365Z,19.20
2023-09-07T18:27:27.065Z,19.20
2023-09-07T18:31:34.449Z,19.10
2023-09-07T18:35:40.413Z,19.10
2023-09-07T18:39:44.641Z,18.90
2023-09-07T18:44:49.801Z,18.80
2023-09-07T18:49:03.392Z,18.80
2023-09-07T18:53:21.003Z,18.70
2023-09-07T18:57:25.912Z,18.70
2023-09-07T19:01:30.209Z,18.70
2023-09-07T19:05:35.593Z,18.60
2023-09-07T19:09:43.692Z,18.50
2023-09-07T19:14:02.207Z,18.50
2023-09-07T19:18:24.926Z,18.40
2023-09-07T19:22:53.043Z,18.40
2023-09-07T19:27:12.745Z,18.30
2023-09-07T19:31:31.175Z,18.30
2023-09-07T19:35:55.556Z,18.20
2023-09-07T20:05:54.472Z,17.80
2023-09-07T20:10:15.328Z,17.80
2023-09-07T20:14:45.026Z,17.70
2023-09-07T20:19:04.898Z,17.70
2023-09-07T20:23:36.488Z,17.60
2023-09-07T20:27:40.968Z,17.50
2023-09-07T20:32:06.707Z,17.50
2023-09-07T20:36:10.807Z,17.50
2023-09-07T20:40:17.896Z,17.50
2023-09-07T20:44:21.680Z,17.40
2023-09-07T20:48:33.078Z,17.40
2023-09-07T20:52:37.007Z,17.30
2023-09-07T20:57:02.500Z,17.20
2023-09-07T21:01:06.878Z,17.20
2023-09-07T21:05:10.905Z,17.10
2023-09-07T21:09:16.919Z,17.10
2023-09-07T21:13:22.319Z,17.00
2023-09-07T21:17:31.827Z,17.00
2023-09-07T21:21:35.570Z,16.90
2023-09-07T21:25:39.431Z,16.90
2023-09-07T21:30:04.254Z,16.90
2023-09-07T21:34:08.102Z,16.80
2023-09-07T21:38:12.041Z,16.80
2023-09-07T21:42:16.362Z,16.60
2023-09-07T21:46:21.731Z,16.60
2023-09-07T21:50:26.874Z,16.60
2023-09-07T21:54:31.021Z,16.50
2023-09-07T22:04:36.161Z,16.50
2023-09-07T22:08:40.281Z,16.40
2023-09-07T22:12:50.094Z,16.40
2023-09-07T22:16:54.156Z,16.30
2023-09-07T22:21:01.889Z,16.30
2023-09-07T22:25:07.801Z,16.20
2023-09-07T22:29:12.938Z,16.10
2023-09-07T22:33:27.482Z,16.10
2023-09-07T22:37:32.690Z,16.00
2023-09-07T22:41:38.455Z,16.00
2023-09-07T22:45:44.548Z,16.00
2023-09-07T22:50:06.294Z,15.80
2023-09-07T22:54:11.750Z,15.80
2023-09-07T22:59:22.943Z,15.80
2023-09-07T23:03:54.740Z,15.70
2023-09-07T23:07:59.999Z,15.70
2023-09-07T23:12:05.806Z,15.70
2023-09-07T23:16:10.470Z,15.60
2023-09-07T23:20:16.674Z,15.60
2023-09-07T23:24:48.041Z,15.60
2023-09-07T23:28:53.311Z,15.50
2023-09-07T23:32:57.142Z,15.40
2023-09-07T23:37:05.258Z,15.30
2023-09-07T23:41:09.049Z,15.30
2023-09-07T23:45:14.464Z,15.30
2023-09-07T23:49:22.948Z,15.40
2023-09-07T23:53:26.640Z,15.30
2023-09-07T23:58:44.532Z,15.20
